createdAt,value
2023-02-06T00:00:48.450Z,8.60
2023-02-06T00:03:16.128Z,8.61
2023-02-06T00:05:44.270Z,8.63
2023-02-06T00:08:12.059Z,8.72
2023-02-06T00:10:39.790Z,8.78
2023-02-06T00:13:07.694Z,8.78
2023-02-06T00:15:52.765Z,8.66
2023-02-06T00:18:21.038Z,8.70
2023-02-06T00:20:48.756Z,8.66
2023-02-06T00:23:19.280Z,8.44
2023-02-06T00:25:53.516Z,8.44
2023-02-06T00:28:21.226Z,8.36
2023-02-06T00:30:50.531Z,8.38
2023-02-06T00:33:19.858Z,8.49
2023-02-06T00:35:48.854Z,8.34
2023-02-06T00:38:16.553Z,8.32
2023-02-06T00:40:44.305Z,8.28
2023-02-06T00:43:11.982Z,8.24
2023-02-06T00:45:39.776Z,8.14
2023-02-06T00:48:10.154Z,8.12
2023-02-06T00:50:37.925Z,8.22
2023-02-06T00:53:05.723Z,8.20
2023-02-06T00:55:33.735Z,8.20
2023-02-06T00:58:01.538Z,8.19
2023-02-06T01:00:29.259Z,8.10
2023-02-06T01:02:59.065Z,8.12
2023-02-06T01:05:28.326Z,8.13
2023-02-06T01:07:56.058Z,8.06
2023-02-06T01:10:23.737Z,8.12
2023-02-06T01:12:51.621Z,8.10
2023-02-06T01:15:19.411Z,8.08
2023-02-06T01:17:47.211Z,8.09
2023-02-06T01:20:15.013Z,8.03
2023-02-06T01:22:44.078Z,8.12
2023-02-06T01:25:12.119Z,8.12
2023-02-06T01:27:39.914Z,8.12
2023-02-06T01:30:09.706Z,8.03
2023-02-06T01:32:38.065Z,7.85
2023-02-06T01:35:06.766Z,8.05
2023-02-06T01:37:34.485Z,8.02
2023-02-06T01:40:03.682Z,7.88
2023-02-06T01:42:31.538Z,7.89
2023-02-06T01:45:32.894Z,7.84
2023-02-06T01:48:02.312Z,7.57
2023-02-06T01:50:29.969Z,7.69
2023-02-06T01:52:57.750Z,7.73
2023-02-06T01:55:26.961Z,7.72
2023-02-06T01:57:54.772Z,7.72
2023-02-06T02:03:01.466Z,7.51
2023-02-06T02:05:29.650Z,7.79
2023-02-06T02:08:01.263Z,6.64
2023-02-06T02:10:31.539Z,7.48
2023-02-06T02:12:59.514Z,7.74
2023-02-06T02:15:34.242Z,7.40
2023-02-06T02:18:04.757Z,7.92
2023-02-06T02:20:58.531Z,7.88
2023-02-06T02:23:35.143Z,6.77
2023-02-06T02:26:30.766Z,6.21
2023-02-06T02:29:41.766Z,7.50
2023-02-06T02:32:27.667Z,8.04
2023-02-06T02:35:46.235Z,7.74
2023-02-06T02:38:19.880Z,8.11
2023-02-06T02:40:50.292Z,7.91
2023-02-06T02:43:22.598Z,6.86
2023-02-06T02:45:52.875Z,8.19
2023-02-06T02:48:24.377Z,8.04
2023-02-06T02:50:53.959Z,8.29
2023-02-06T02:53:21.817Z,7.64
2023-02-06T02:55:49.663Z,7.44
2023-02-06T02:58:19.569Z,7.03
2023-02-06T03:00:49.607Z,7.73
2023-02-06T03:03:18.702Z,8.09
2023-02-06T03:06:02.742Z,8.13
2023-02-06T03:08:35.561Z,8.34
2023-02-06T03:11:06.695Z,8.17
2023-02-06T03:13:37.155Z,7.62
2023-02-06T03:16:07.940Z,7.63
2023-02-06T03:18:40.326Z,7.82
2023-02-06T03:21:10.501Z,8.37
2023-02-06T03:23:40.076Z,7.29
2023-02-06T03:26:09.610Z,7.22
2023-02-06T03:28:40.136Z,8.31
2023-02-06T03:31:10.139Z,8.29
2023-02-06T03:33:41.242Z,7.67
2023-02-06T03:36:17.027Z,8.24
2023-02-06T03:38:45.473Z,8.26
2023-02-06T03:41:13.685Z,7.88
2023-02-06T03:43:42.106Z,8.26
2023-02-06T03:46:12.552Z,6.02
2023-02-06T03:48:41.965Z,7.54
2023-02-06T03:51:13.082Z,8.26
2023-02-06T03:53:41.208Z,8.31
2023-02-06T03:56:10.860Z,8.09
2023-02-06T03:58:39.746Z,6.95
2023-02-06T04:01:07.631Z,8.25
2023-02-06T04:03:35.556Z,8.22
2023-02-06T04:06:03.919Z,8.18
2023-02-06T04:08:32.990Z,8.18
2023-02-06T04:11:00.932Z,7.64
2023-02-06T04:13:28.745Z,7.52
2023-02-06T04:15:57.655Z,7.78
2023-02-06T04:18:25.678Z,7.98
2023-02-06T04:20:53.473Z,8.12
2023-02-06T04:23:21.527Z,8.02
2023-02-06T04:25:50.739Z,6.06
2023-02-06T04:28:18.649Z,7.24
2023-02-06T04:30:46.632Z,7.56
2023-02-06T04:33:14.544Z,7.91
2023-02-06T04:35:42.346Z,7.31
2023-02-06T04:38:10.197Z,7.26
2023-02-06T04:40:38.090Z,7.29
2023-02-06T04:43:07.302Z,7.96
2023-02-06T04:45:35.811Z,8.09
2023-02-06T04:48:03.879Z,8.09
2023-02-06T04:50:34.513Z,7.04
2023-02-06T04:53:02.663Z,7.83
2023-02-06T04:55:30.775Z,8.15
2023-02-06T04:57:59.795Z,8.08
2023-02-06T05:00:29.079Z,8.03
2023-02-06T05:02:57.007Z,7.95
2023-02-06T05:05:24.807Z,7.92
2023-02-06T05:07:52.994Z,7.88
2023-02-06T05:10:21.053Z,7.66
2023-02-06T05:12:50.829Z,6.93
2023-02-06T05:15:19.030Z,7.26
2023-02-06T05:17:48.150Z,7.82
2023-02-06T05:20:15.975Z,7.82
2023-02-06T05:22:44.052Z,7.86
2023-02-06T05:25:12.031Z,7.47
2023-02-06T05:27:45.832Z,7.31
2023-02-06T05:30:14.692Z,7.56
2023-02-06T05:32:42.640Z,7.67
2023-02-06T05:35:11.795Z,7.31
2023-02-06T05:37:39.721Z,7.95
2023-02-06T05:40:08.187Z,6.85
2023-02-06T05:42:36.536Z,6.54
2023-02-06T05:45:05.297Z,7.85
2023-02-06T05:47:33.117Z,7.95
2023-02-06T05:50:01.941Z,7.35
2023-02-06T05:52:31.222Z,7.80
2023-02-06T05:55:00.347Z,6.60
2023-02-06T05:57:28.276Z,7.42
2023-02-06T05:59:56.432Z,7.94
2023-02-06T06:02:24.240Z,7.73
2023-02-06T06:04:52.417Z,7.43
2023-02-06T06:07:20.217Z,7.57
2023-02-06T06:09:49.547Z,6.78
2023-02-06T06:12:17.859Z,7.92
2023-02-06T06:14:45.644Z,7.86
2023-02-06T06:17:15.878Z,7.81
2023-02-06T06:19:43.755Z,6.46
2023-02-06T06:22:12.044Z,6.88
2023-02-06T06:24:40.265Z,7.79
2023-02-06T06:27:10.758Z,7.42
2023-02-06T06:29:38.694Z,6.85
2023-02-06T06:32:06.786Z,7.76
2023-02-06T06:34:34.659Z,6.21
2023-02-06T06:37:02.653Z,7.82
2023-02-06T06:39:30.588Z,4.63
2023-02-06T06:41:58.459Z,6.36
2023-02-06T06:44:27.634Z,7.87
2023-02-06T06:46:56.648Z,7.04
2023-02-06T06:49:24.679Z,6.36
2023-02-06T06:51:52.762Z,7.33
2023-02-06T06:54:21.587Z,7.83
2023-02-06T06:56:49.828Z,7.94
2023-02-06T06:59:17.742Z,7.33
2023-02-06T07:01:48.976Z,7.15
2023-02-06T07:04:19.063Z,8.01
2023-02-06T07:06:46.951Z,8.01
2023-02-06T07:09:14.940Z,6.49
2023-02-06T07:11:43.059Z,5.50
2023-02-06T07:14:11.192Z,6.59
2023-02-06T07:16:39.336Z,8.02
2023-02-06T07:19:09.948Z,7.54
2023-02-06T07:21:38.014Z,7.70
2023-02-06T07:24:06.392Z,6.33
2023-02-06T07:26:34.182Z,8.07
2023-02-06T07:29:02.384Z,8.03
2023-02-06T07:31:30.232Z,7.88
2023-02-06T07:33:58.800Z,7.87
2023-02-06T07:36:28.512Z,8.00
2023-02-06T07:38:56.444Z,7.70
2023-02-06T07:41:28.108Z,6.70
2023-02-06T07:43:56.411Z,7.72
2023-02-06T07:46:24.625Z,8.45
2023-02-06T07:48:52.447Z,7.49
2023-02-06T07:51:20.661Z,8.02
2023-02-06T07:53:52.456Z,8.42
2023-02-06T07:56:21.049Z,7.72
2023-02-06T07:58:51.660Z,8.48
2023-02-06T08:03:47.089Z,8.96
2023-02-06T08:06:16.206Z,9.16
2023-02-06T08:08:43.998Z,9.41
2023-02-06T08:11:14.904Z,9.75
2023-02-06T08:13:42.862Z,9.98
2023-02-06T08:16:12.402Z,10.13
2023-02-06T08:18:40.187Z,10.20
2023-02-06T08:21:08.986Z,10.23
2023-02-06T08:23:36.651Z,10.25
2023-02-06T08:26:04.814Z,10.22
2023-02-06T08:28:35.173Z,10.16
2023-02-06T08:31:04.388Z,10.17
2023-02-06T08:33:33.546Z,10.13
2023-02-06T08:36:02.871Z,10.14
2023-02-06T08:38:30.695Z,10.16
2023-02-06T08:40:58.651Z,10.28
2023-02-06T08:43:26.527Z,10.34
2023-02-06T08:45:57.493Z,10.35
2023-02-06T08:48:25.276Z,10.41
2023-02-06T08:51:02.644Z,10.52
2023-02-06T08:53:30.490Z,10.62
2023-02-06T08:56:01.113Z,10.65
2023-02-06T08:58:28.838Z,10.79
2023-02-06T09:00:59.640Z,10.88
2023-02-06T09:03:27.410Z,10.91
2023-02-06T09:06:09.617Z,11.02
2023-02-06T09:08:37.795Z,11.17
2023-02-06T09:11:09.022Z,11.25
2023-02-06T09:13:36.902Z,11.38
2023-02-06T09:16:07.070Z,11.50
2023-02-06T09:18:34.992Z,11.60
2023-02-06T09:21:07.426Z,11.76
2023-02-06T09:23:35.850Z,11.87
2023-02-06T09:26:03.585Z,12.05
2023-02-06T09:28:31.400Z,12.28
2023-02-06T09:30:59.241Z,12.57
2023-02-06T09:33:28.439Z,13.02
2023-02-06T09:36:03.529Z,13.67
2023-02-06T09:38:31.205Z,14.26
2023-02-06T09:41:03.866Z,14.63
2023-02-06T09:43:31.782Z,14.74
2023-02-06T09:46:01.534Z,14.77
2023-02-06T09:48:32.127Z,14.83
2023-02-06T09:51:05.093Z,14.96
2023-02-06T09:53:37.710Z,14.96
2023-02-06T09:56:13.299Z,15.14
2023-02-06T09:58:43.433Z,15.34
2023-02-06T10:01:14.046Z,15.62
2023-02-06T10:03:58.693Z,15.95
2023-02-06T10:06:27.776Z,16.12
2023-02-06T10:09:00.810Z,16.41
2023-02-06T10:11:40.201Z,16.64
2023-02-06T10:14:11.919Z,17.49
2023-02-06T10:16:42.103Z,17.89
2023-02-06T10:19:16.297Z,18.71
2023-02-06T10:21:47.136Z,20.19
2023-02-06T10:24:17.500Z,21.05
2023-02-06T10:26:45.435Z,21.32
2023-02-06T10:29:23.619Z,21.37
2023-02-06T10:31:56.527Z,21.19
2023-02-06T10:34:36.893Z,21.15
2023-02-06T10:37:23.526Z,20.81
2023-02-06T10:40:09.918Z,21.22
2023-02-06T10:42:44.543Z,22.39
2023-02-06T10:45:20.229Z,23.19
2023-02-06T10:47:50.927Z,23.45
2023-02-06T10:50:23.902Z,23.98
2023-02-06T10:52:51.882Z,23.95
2023-02-06T10:55:23.912Z,23.91
2023-02-06T10:57:54.586Z,24.72
2023-02-06T11:00:24.660Z,25.20
2023-02-06T11:03:06.621Z,25.74
2023-02-06T11:05:38.346Z,25.73
2023-02-06T11:08:12.038Z,25.64
2023-02-06T11:10:39.981Z,25.92
2023-02-06T11:13:13.884Z,25.95
2023-02-06T11:15:45.331Z,26.30
2023-02-06T11:18:14.260Z,26.15
2023-02-06T11:20:44.572Z,26.34
2023-02-06T11:23:17.361Z,27.07
2023-02-06T11:25:45.296Z,28.51
2023-02-06T11:28:14.612Z,29.76
2023-02-06T11:30:43.990Z,30.86
2023-02-06T11:33:20.739Z,31.65
2023-02-06T11:35:52.414Z,32.38
2023-02-06T11:38:21.716Z,32.82
2023-02-06T11:40:55.843Z,33.31
2023-02-06T11:43:24.377Z,33.37
2023-02-06T11:45:53.847Z,31.94
2023-02-06T11:48:35.953Z,29.68
2023-02-06T11:51:05.458Z,27.77
2023-02-06T11:53:33.375Z,26.12
2023-02-06T11:56:06.719Z,24.53
2023-02-06T11:58:34.475Z,23.28
2023-02-06T12:01:05.221Z,22.20
2023-02-06T12:03:35.862Z,21.25
2023-02-06T12:06:09.943Z,20.49
2023-02-06T12:08:42.157Z,19.68
2023-02-06T12:11:14.377Z,19.01
2023-02-06T12:13:44.968Z,18.52
2023-02-06T12:16:14.235Z,18.02
2023-02-06T12:18:44.310Z,17.47
2023-02-06T12:21:15.170Z,16.95
2023-02-06T12:23:46.360Z,16.49
2023-02-06T12:26:17.746Z,16.18
2023-02-06T12:28:51.260Z,15.90
2023-02-06T12:31:20.900Z,15.60
2023-02-06T12:33:53.440Z,15.40
2023-02-06T12:36:25.652Z,15.17
2023-02-06T12:38:55.361Z,15.05
2023-02-06T12:41:40.332Z,14.99
2023-02-06T12:44:14.359Z,14.84
2023-02-06T12:46:42.304Z,14.58
2023-02-06T12:49:13.760Z,14.19
2023-02-06T12:51:47.350Z,14.06
2023-02-06T12:54:17.118Z,14.18
2023-02-06T12:56:46.710Z,14.07
2023-02-06T12:59:31.620Z,14.02
2023-02-06T13:02:01.317Z,13.98
2023-02-06T13:04:30.969Z,13.88
2023-02-06T13:07:04.284Z,13.67
2023-02-06T13:09:33.875Z,13.63
2023-02-06T13:12:08.694Z,13.58
2023-02-06T13:14:37.828Z,13.52
2023-02-06T13:17:10.197Z,13.54
2023-02-06T13:20:04.258Z,13.41
2023-02-06T13:22:44.823Z,13.36
2023-02-06T13:25:46.181Z,13.31
2023-02-06T13:28:56.111Z,13.29
2023-02-06T13:31:29.158Z,13.28
2023-02-06T13:33:59.123Z,13.17
2023-02-06T13:36:42.961Z,12.99
2023-02-06T13:39:17.051Z,13.37
2023-02-06T13:41:44.966Z,13.10
2023-02-06T13:44:16.881Z,13.17
2023-02-06T13:47:08.519Z,13.18
2023-02-06T13:49:59.320Z,13.05
2023-02-06T13:52:29.678Z,12.95
2023-02-06T13:55:06.153Z,12.85
2023-02-06T13:57:41.307Z,12.83
2023-02-06T14:00:12.241Z,12.81
2023-02-06T14:02:40.811Z,12.69
2023-02-06T14:05:11.784Z,12.50
2023-02-06T14:07:50.307Z,12.66
2023-02-06T14:10:53.287Z,12.85
2023-02-06T14:13:30.319Z,12.83
2023-02-06T14:16:02.970Z,12.84
2023-02-06T14:18:41.493Z,12.24
2023-02-06T14:21:16.156Z,12.39
2023-02-06T14:23:56.884Z,12.66
2023-02-06T14:26:32.454Z,12.62
2023-02-06T14:29:03.562Z,12.60
2023-02-06T14:31:44.972Z,12.50
2023-02-06T14:34:24.473Z,12.17
2023-02-06T14:37:14.263Z,12.32
2023-02-06T14:39:44.492Z,12.27
2023-02-06T14:42:18.534Z,12.24
2023-02-06T14:44:50.577Z,12.14
2023-02-06T14:47:19.617Z,12.04
2023-02-06T14:49:47.426Z,12.00
2023-02-06T14:52:18.798Z,11.77
2023-02-06T14:54:46.743Z,11.96
2023-02-06T14:57:20.795Z,11.09
2023-02-06T14:59:53.779Z,11.95
2023-02-06T15:02:25.797Z,11.95
2023-02-06T15:04:53.986Z,11.89
2023-02-06T15:07:24.208Z,11.89
2023-02-06T15:10:07.019Z,11.83
2023-02-06T15:12:36.432Z,11.79
2023-02-06T15:15:16.411Z,11.69
2023-02-06T15:17:44.413Z,11.49
2023-02-06T15:20:30.891Z,11.62
2023-02-06T15:23:11.681Z,11.51
2023-02-06T15:25:50.791Z,11.32
2023-02-06T15:28:22.454Z,11.39
2023-02-06T15:30:54.254Z,11.34
2023-02-06T15:33:23.465Z,11.28
2023-02-06T15:35:53.119Z,11.25
2023-02-06T15:38:21.963Z,11.23
2023-02-06T15:40:51.558Z,11.10
2023-02-06T15:43:22.118Z,11.24
2023-02-06T15:45:50.950Z,11.22
2023-02-06T15:48:20.738Z,11.24
2023-02-06T15:50:59.631Z,11.23
2023-02-06T15:53:33.532Z,11.23
2023-02-06T15:56:01.413Z,11.31
2023-02-06T15:58:31.359Z,11.07
2023-02-06T16:00:59.245Z,11.24
2023-02-06T16:03:27.848Z,11.19
2023-02-06T16:05:56.455Z,11.22
2023-02-06T16:08:26.264Z,11.17
2023-02-06T16:10:54.849Z,11.14
2023-02-06T16:13:26.019Z,11.06
2023-02-06T16:16:23.940Z,11.03
2023-02-06T16:18:53.428Z,10.95
2023-02-06T16:21:26.881Z,10.90
2023-02-06T16:24:03.327Z,10.67
2023-02-06T16:26:31.740Z,10.88
2023-02-06T16:29:00.946Z,10.83
2023-02-06T16:31:31.445Z,10.45
2023-02-06T16:34:03.121Z,10.76
2023-02-06T16:36:31.844Z,10.59
2023-02-06T16:39:04.079Z,10.75
2023-02-06T16:41:35.447Z,10.69
2023-02-06T16:44:05.295Z,10.55
2023-02-06T16:46:34.538Z,10.59
2023-02-06T16:49:02.550Z,10.61
2023-02-06T16:51:31.064Z,10.55
2023-02-06T16:53:58.949Z,10.53
2023-02-06T16:56:26.786Z,10.50
2023-02-06T16:58:54.775Z,10.45
2023-02-06T17:01:25.155Z,10.41
2023-02-06T17:03:54.522Z,10.39
2023-02-06T17:06:24.310Z,10.13
2023-02-06T17:08:54.020Z,10.37
2023-02-06T17:11:21.929Z,10.38
2023-02-06T17:13:49.944Z,10.41
2023-02-06T17:16:21.059Z,10.36
2023-02-06T17:18:49.026Z,10.45
2023-02-06T17:21:19.104Z,10.34
2023-02-06T17:23:47.264Z,10.44
2023-02-06T17:26:16.719Z,10.43
2023-02-06T17:28:44.611Z,10.40
2023-02-06T17:33:59.820Z,10.42
2023-02-06T17:36:32.316Z,10.37
2023-02-06T17:39:00.567Z,10.28
2023-02-06T17:41:28.554Z,10.35
2023-02-06T17:43:56.290Z,9.48
2023-02-06T17:46:24.315Z,10.25
2023-02-06T17:48:52.215Z,10.32
2023-02-06T17:51:19.982Z,10.34
2023-02-06T17:53:50.307Z,10.29
2023-02-06T17:56:19.285Z,10.30
2023-02-06T17:58:47.054Z,10.31
2023-02-06T18:01:15.825Z,10.23
2023-02-06T18:03:44.382Z,10.19
2023-02-06T18:06:12.750Z,10.18
2023-02-06T18:08:40.811Z,10.11
2023-02-06T18:11:11.511Z,10.04
2023-02-06T18:13:39.587Z,9.96
2023-02-06T18:16:08.395Z,9.86
2023-02-06T18:18:37.187Z,9.77
2023-02-06T18:21:05.011Z,9.61
2023-02-06T18:23:32.850Z,9.57
2023-02-06T18:26:02.156Z,9.29
2023-02-06T18:28:31.335Z,9.51
2023-02-06T18:31:01.744Z,9.60
2023-02-06T18:33:29.665Z,9.48
2023-02-06T18:35:57.458Z,9.61
2023-02-06T18:38:25.651Z,9.57
2023-02-06T18:40:53.391Z,9.61
2023-02-06T18:43:20.161Z,9.41
2023-02-06T18:45:49.369Z,9.67
2023-02-06T18:48:17.110Z,9.64
2023-02-06T18:50:44.873Z,9.65
2023-02-06T18:53:12.730Z,9.44
2023-02-06T18:55:40.464Z,9.57
2023-02-06T18:58:08.315Z,9.58
2023-02-06T19:00:37.798Z,9.56
2023-02-06T19:03:07.087Z,9.45
2023-02-06T19:05:35.968Z,9.22
2023-02-06T19:08:03.759Z,9.11
2023-02-06T19:10:31.822Z,9.20
2023-02-06T19:12:59.535Z,9.27
2023-02-06T19:15:27.541Z,9.27
2023-02-06T19:17:55.282Z,9.13
2023-02-06T19:20:24.418Z,9.19
2023-02-06T19:22:53.591Z,9.12
2023-02-06T19:25:21.603Z,9.10
2023-02-06T19:27:49.360Z,9.05
2023-02-06T19:30:17.404Z,8.99
2023-02-06T19:32:48.063Z,8.93
2023-02-06T19:35:17.185Z,8.88
2023-02-06T19:37:46.978Z,7.94
2023-02-06T19:40:15.398Z,8.75
2023-02-06T19:42:44.208Z,8.66
2023-02-06T19:45:11.911Z,8.63
2023-02-06T19:47:42.018Z,8.58
2023-02-06T19:50:14.320Z,8.42
2023-02-06T19:52:42.345Z,8.41
2023-02-06T19:55:11.801Z,8.31
2023-02-06T19:57:39.797Z,8.34
2023-02-06T20:00:08.836Z,8.31
2023-02-06T20:02:36.592Z,8.27
2023-02-06T20:05:04.499Z,8.23
2023-02-06T20:07:32.388Z,8.20
2023-02-06T20:10:01.280Z,8.08
2023-02-06T20:12:42.286Z,6.77
2023-02-06T20:15:10.488Z,6.84
2023-02-06T20:17:38.176Z,8.13
2023-02-06T20:20:08.590Z,8.12
2023-02-06T20:22:48.374Z,7.25
2023-02-06T20:25:20.890Z,8.06
2023-02-06T20:27:50.096Z,8.03
2023-02-06T20:30:22.237Z,8.02
2023-02-06T20:32:50.171Z,7.99
2023-02-06T20:35:18.221Z,7.96
2023-02-06T20:37:46.007Z,7.95
2023-02-06T20:40:13.923Z,7.76
2023-02-06T20:42:44.412Z,7.95
2023-02-06T20:45:16.648Z,7.67
2023-02-06T20:47:44.315Z,8.02
2023-02-06T20:50:22.564Z,8.03
2023-02-06T20:52:52.025Z,7.33
2023-02-06T20:55:23.934Z,7.88
2023-02-06T20:57:51.609Z,7.87
2023-02-06T21:00:21.941Z,7.86
2023-02-06T21:02:51.433Z,7.85
2023-02-06T21:05:20.749Z,7.76
2023-02-06T21:07:48.562Z,7.64
2023-02-06T21:10:16.530Z,7.71
2023-02-06T21:12:44.333Z,7.67
2023-02-06T21:15:12.169Z,7.59
2023-02-06T21:17:41.379Z,7.55
2023-02-06T21:20:10.308Z,7.52
2023-02-06T21:22:38.154Z,7.50
2023-02-06T21:25:06.481Z,7.46
2023-02-06T21:27:34.159Z,7.43
2023-02-06T21:30:02.012Z,7.39
2023-02-06T21:32:30.835Z,7.34
2023-02-06T21:34:59.945Z,7.26
2023-02-06T21:37:27.948Z,6.75
2023-02-06T21:39:55.656Z,7.21
2023-02-06T21:42:26.213Z,7.13
2023-02-06T21:44:54.124Z,7.14
2023-02-06T21:47:21.820Z,7.11
2023-02-06T21:49:50.711Z,7.07
2023-02-06T21:52:19.815Z,7.04
2023-02-06T21:54:47.563Z,6.95
2023-02-06T21:57:15.385Z,6.66
2023-02-06T21:59:43.689Z,6.93
2023-02-06T22:02:11.775Z,6.89
2023-02-06T22:04:39.564Z,6.84
2023-02-06T22:07:09.256Z,6.81
2023-02-06T22:09:38.540Z,6.77
2023-02-06T22:12:07.367Z,6.73
2023-02-06T22:14:35.395Z,6.71
2023-02-06T22:17:03.121Z,6.68
2023-02-06T22:19:31.385Z,6.54
2023-02-06T22:21:59.086Z,6.64
2023-02-06T22:24:27.244Z,6.60
2023-02-06T22:26:56.378Z,6.55
2023-02-06T22:29:24.554Z,6.53
2023-02-06T22:31:52.558Z,6.51
2023-02-06T22:34:21.202Z,6.48
2023-02-06T22:36:51.019Z,6.45
2023-02-06T22:39:18.927Z,6.42
2023-02-06T22:41:46.931Z,6.39
2023-02-06T22:44:17.145Z,6.37
2023-02-06T22:46:45.618Z,6.20
2023-02-06T22:49:13.454Z,6.07
2023-02-06T22:51:41.615Z,6.29
2023-02-06T22:54:10.591Z,5.82
2023-02-06T22:56:38.894Z,6.06
2023-02-06T22:59:07.720Z,5.93
2023-02-06T23:01:38.144Z,5.72
2023-02-06T23:04:06.798Z,5.80
2023-02-06T23:06:35.237Z,6.07
2023-02-06T23:09:03.681Z,6.05
2023-02-06T23:11:32.451Z,5.75
2023-02-06T23:14:01.494Z,5.98
2023-02-06T23:16:29.897Z,5.97
2023-02-06T23:18:59.175Z,5.87
2023-02-06T23:21:27.999Z,5.88
2023-02-06T23:23:56.256Z,5.66
2023-02-06T23:26:24.179Z,5.45
2023-02-06T23:28:52.390Z,5.87
2023-02-06T23:34:03.430Z,5.85
2023-02-06T23:36:31.311Z,5.83
2023-02-06T23:38:58.978Z,5.81
2023-02-06T23:41:28.997Z,5.78
2023-02-06T23:43:57.858Z,5.77
2023-02-06T23:46:25.845Z,5.73
2023-02-06T23:48:53.637Z,5.73
2023-02-06T23:51:23.116Z,5.69
2023-02-06T23:53:50.786Z,5.68
2023-02-06T23:56:21.604Z,5.65
2023-02-06T23:58:49.307Z,5.65
